createdAt,value
2023-04-19T00:01:29.645Z,102705.31
2023-04-19T00:03:56.990Z,102699.91
2023-04-19T00:06:24.688Z,102704.78
2023-04-19T00:08:52.041Z,102699.69
2023-04-19T00:11:21.334Z,102687.78
2023-04-19T00:13:49.308Z,102697.72
2023-04-19T00:16:19.479Z,102703.03
2023-04-19T00:18:46.763Z,102698.06
2023-04-19T00:21:13.725Z,102695.25
2023-04-19T00:23:42.983Z,102688.22
2023-04-19T00:26:11.713Z,102689.06
2023-04-19T00:28:43.131Z,102689.41
2023-04-19T00:31:12.615Z,102682.59
2023-04-19T00:33:39.570Z,102677.59
2023-04-19T00:36:06.712Z,102683.47
2023-04-19T00:38:35.810Z,102683.72
2023-04-19T00:41:02.729Z,102678.88
2023-04-19T00:43:29.532Z,102683.56
2023-04-19T00:45:59.073Z,102685.50
2023-04-19T00:48:26.158Z,102679.72
2023-04-19T00:50:53.325Z,102683.44
2023-04-19T00:53:20.239Z,102675.38
2023-04-19T00:55:50.968Z,102674.91
2023-04-19T00:58:18.136Z,102673.34
2023-04-19T01:00:45.075Z,102668.44
2023-04-19T01:03:13.675Z,102670.22
2023-04-19T01:05:40.921Z,102677.63
2023-04-19T01:08:08.358Z,102676.31
2023-04-19T01:10:37.381Z,102663.91
2023-04-19T01:13:04.428Z,102671.97
2023-04-19T01:15:33.822Z,102679.22
2023-04-19T01:18:03.800Z,102675.81
2023-04-19T01:20:30.722Z,102675.50
2023-04-19T01:22:57.714Z,102674.97
2023-04-19T01:25:24.597Z,102677.06
2023-04-19T01:27:51.465Z,102674.38
2023-04-19T01:30:20.681Z,102687.38
2023-04-19T01:32:47.664Z,102675.66
2023-04-19T01:35:16.860Z,102678.78
2023-04-19T01:37:46.134Z,102671.81
2023-04-19T01:40:13.585Z,102678.34
2023-04-19T01:42:40.401Z,102673.91
2023-04-19T01:45:08.006Z,102670.31
2023-04-19T01:47:34.863Z,102679.81
2023-04-19T01:50:01.717Z,102677.38
2023-04-19T01:52:31.538Z,102669.84
2023-04-19T01:54:58.623Z,102670.03
2023-04-19T01:57:28.018Z,102670.03
2023-04-19T01:59:54.922Z,102670.75
2023-04-19T02:02:22.097Z,102660.53
2023-04-19T02:04:51.287Z,102672.09
2023-04-19T02:07:18.114Z,102670.03
2023-04-19T02:09:47.204Z,102661.84
2023-04-19T02:12:14.067Z,102659.03
2023-04-19T02:14:41.063Z,102663.22
2023-04-19T02:17:10.225Z,102666.38
2023-04-19T02:19:37.112Z,102660.16
2023-04-19T02:22:03.906Z,102664.69
2023-04-19T02:24:30.796Z,102656.41
2023-04-19T02:26:57.788Z,102659.59
2023-04-19T02:29:24.638Z,102657.97
2023-04-19T02:31:51.611Z,102651.91
2023-04-19T02:34:18.680Z,102658.91
2023-04-19T02:36:45.620Z,102655.47
2023-04-19T02:39:12.594Z,102652.09
2023-04-19T02:41:41.845Z,102659.41
2023-04-19T02:44:08.940Z,102657.97
2023-04-19T02:46:35.896Z,102654.66
2023-04-19T02:49:02.832Z,102656.59
2023-04-19T02:51:29.860Z,102650.53
2023-04-19T02:53:56.727Z,102651.09
2023-04-19T02:56:23.934Z,102652.47
2023-04-19T02:58:52.832Z,102643.72
2023-04-19T03:01:21.845Z,102647.69
2023-04-19T03:03:48.961Z,102636.13
2023-04-19T03:06:18.436Z,102640.72
2023-04-19T03:08:45.828Z,102643.34
2023-04-19T03:11:17.910Z,102628.88
2023-04-19T03:13:44.817Z,102636.59
2023-04-19T03:16:14.210Z,102635.63
2023-04-19T03:18:41.101Z,102627.72
2023-04-19T03:21:09.534Z,102627.72
2023-04-19T03:23:37.761Z,102635.34
2023-04-19T03:26:04.846Z,102629.25
2023-04-19T03:28:31.673Z,102622.72
2023-04-19T03:30:58.516Z,102625.81
2023-04-19T03:33:28.436Z,102616.94
2023-04-19T03:35:57.585Z,102619.28
2023-04-19T03:38:26.740Z,102616.00
2023-04-19T03:40:53.563Z,102616.47
2023-04-19T03:43:20.424Z,102612.72
2023-04-19T03:45:47.319Z,102618.88
2023-04-19T03:48:17.166Z,102617.28
2023-04-19T03:50:44.034Z,102615.63
2023-04-19T03:53:10.975Z,102616.13
2023-04-19T03:55:37.786Z,102602.22
2023-04-19T03:58:07.168Z,102599.47
2023-04-19T04:00:34.166Z,102601.19
2023-04-19T04:03:01.474Z,102605.06
2023-04-19T04:05:31.499Z,102605.53
2023-04-19T04:08:01.569Z,102609.00
2023-04-19T04:10:28.501Z,102609.25
2023-04-19T04:12:55.424Z,102607.38
2023-04-19T04:15:25.029Z,102606.66
2023-04-19T04:17:51.938Z,102608.47
2023-04-19T04:20:19.311Z,102598.25
2023-04-19T04:22:47.217Z,102600.63
2023-04-19T04:25:18.695Z,102595.66
2023-04-19T04:27:46.408Z,102598.09
2023-04-19T04:30:13.577Z,102597.72
2023-04-19T04:32:40.980Z,102596.91
2023-04-19T04:35:12.285Z,102593.19
2023-04-19T04:37:40.217Z,102587.13
2023-04-19T04:40:08.943Z,102589.91
2023-04-19T04:42:37.844Z,102592.38
2023-04-19T04:45:07.462Z,102594.78
2023-04-19T04:47:34.955Z,102595.66
2023-04-19T04:50:05.055Z,102587.22
2023-04-19T04:52:31.972Z,102591.56
2023-04-19T04:54:58.839Z,102595.13
2023-04-19T04:57:25.725Z,102596.53
2023-04-19T04:59:52.710Z,102597.84
2023-04-19T05:02:19.621Z,102601.94
2023-04-19T05:04:46.607Z,102599.78
2023-04-19T05:07:13.745Z,102603.56
2023-04-19T05:09:40.603Z,102594.81
2023-04-19T05:12:10.561Z,102594.88
2023-04-19T05:14:37.453Z,102603.22
2023-04-19T05:17:07.248Z,102597.69
2023-04-19T05:19:34.225Z,102594.00
2023-04-19T05:22:03.713Z,102597.34
2023-04-19T05:24:33.565Z,102590.94
2023-04-19T05:27:01.748Z,102591.34
2023-04-19T05:29:28.665Z,102592.38
2023-04-19T05:31:55.812Z,102593.13
2023-04-19T05:34:25.968Z,102591.22
2023-04-19T05:36:52.864Z,102586.56
2023-04-19T05:39:19.705Z,102581.09
2023-04-19T05:41:48.243Z,102578.25
2023-04-19T05:44:15.452Z,102578.97
2023-04-19T05:46:42.744Z,102576.78
2023-04-19T05:49:09.571Z,102574.34
2023-04-19T05:51:36.583Z,102576.03
2023-04-19T05:54:03.766Z,102576.50
2023-04-19T05:56:30.648Z,102579.06
2023-04-19T05:58:58.282Z,102583.84
2023-04-19T06:01:25.317Z,102566.22
2023-04-19T06:03:54.400Z,102574.47
2023-04-19T06:06:25.176Z,102563.28
2023-04-19T06:08:54.622Z,102566.91
2023-04-19T06:11:31.463Z,102569.25
2023-04-19T06:14:08.712Z,102564.91
2023-04-19T06:16:35.615Z,102579.94
2023-04-19T06:19:05.379Z,102566.03
2023-04-19T06:21:37.292Z,102555.56
2023-04-19T06:24:05.772Z,102571.31
2023-04-19T06:26:32.828Z,102567.75
2023-04-19T06:29:02.297Z,102568.47
2023-04-19T06:31:29.402Z,102561.84
2023-04-19T06:33:56.493Z,102559.91
2023-04-19T06:36:25.625Z,102558.69
2023-04-19T06:38:55.537Z,102556.84
2023-04-19T06:41:23.075Z,102552.81
2023-04-19T06:43:52.492Z,102547.91
2023-04-19T06:46:19.328Z,102545.31
2023-04-19T06:48:48.309Z,102549.75
2023-04-19T06:51:18.451Z,102542.09
2023-04-19T06:53:45.308Z,102546.69
2023-04-19T06:56:14.421Z,102544.59
2023-04-19T06:58:41.300Z,102546.69
2023-04-19T07:01:08.184Z,102538.16
2023-04-19T07:03:35.350Z,102531.09
2023-04-19T07:06:02.564Z,102539.25
2023-04-19T07:08:48.292Z,102536.47
2023-04-19T07:11:16.007Z,102529.53
2023-04-19T07:13:47.417Z,102525.28
2023-04-19T07:16:16.933Z,102525.19
2023-04-19T07:18:44.075Z,102528.16
2023-04-19T07:21:11.900Z,102519.13
2023-04-19T07:23:41.004Z,102518.47
2023-04-19T07:26:08.444Z,102526.41
2023-04-19T07:28:35.983Z,102523.91
2023-04-19T07:31:05.688Z,102527.16
2023-04-19T07:33:32.733Z,102509.50
2023-04-19T07:36:02.030Z,102514.69
2023-04-19T07:38:29.047Z,102515.88
2023-04-19T07:40:58.160Z,102508.16
2023-04-19T07:43:25.113Z,102500.22
2023-04-19T07:45:52.672Z,102512.84
2023-04-19T07:48:21.913Z,102519.13
2023-04-19T07:50:49.261Z,102500.84
2023-04-19T07:53:19.044Z,102500.28
2023-04-19T07:55:46.032Z,102503.78
2023-04-19T07:58:12.919Z,102488.00
2023-04-19T08:00:42.290Z,102484.56
2023-04-19T08:03:14.179Z,102505.47
2023-04-19T08:05:41.471Z,102492.59
2023-04-19T08:08:08.394Z,102488.59
2023-04-19T08:10:36.001Z,102487.16
2023-04-19T08:13:06.280Z,102486.03
2023-04-19T08:18:05.635Z,102486.59
2023-04-19T08:20:33.206Z,102492.31
2023-04-19T08:23:10.263Z,102485.69
2023-04-19T08:25:41.750Z,102492.50
2023-04-19T08:28:08.791Z,102482.66
2023-04-19T08:30:38.121Z,102493.06
2023-04-19T08:33:05.040Z,102484.81
2023-04-19T08:35:31.986Z,102473.72
2023-04-19T08:37:59.029Z,102471.09
2023-04-19T08:40:25.921Z,102475.44
2023-04-19T08:42:52.783Z,102475.84
2023-04-19T08:45:28.380Z,102472.72
2023-04-19T08:48:01.463Z,102473.75
2023-04-19T08:50:36.113Z,102468.06
2023-04-19T08:55:59.205Z,102465.06
2023-04-19T09:01:05.802Z,102448.06
2023-04-19T09:03:47.186Z,102460.66
2023-04-19T09:06:26.684Z,102474.25
2023-04-19T09:08:58.333Z,102464.59
2023-04-19T09:11:40.347Z,102469.94
2023-04-19T09:14:13.481Z,102440.31
2023-04-19T09:16:46.111Z,102441.34
2023-04-19T09:19:23.093Z,102454.44
2023-04-19T09:21:55.711Z,102434.19
2023-04-19T09:27:16.726Z,102457.97
2023-04-19T09:29:56.561Z,102432.38
2023-04-19T09:32:24.708Z,102433.59
2023-04-19T09:35:02.717Z,102429.13
2023-04-19T09:37:51.266Z,102437.84
2023-04-19T09:40:28.884Z,102419.41
2023-04-19T09:43:07.376Z,102422.16
2023-04-19T09:45:45.786Z,102413.13
2023-04-19T09:48:13.722Z,102420.31
2023-04-19T09:51:06.222Z,102403.03
2023-04-19T09:53:39.310Z,102409.03
2023-04-19T09:56:07.568Z,102408.53
2023-04-19T09:58:46.861Z,102398.56
2023-04-19T10:01:19.393Z,102390.59
2023-04-19T10:03:50.965Z,102385.81
2023-04-19T10:08:54.746Z,102373.13
2023-04-19T10:11:27.381Z,102378.13
2023-04-19T10:14:00.198Z,102373.66
2023-04-19T10:16:30.577Z,102377.41
2023-04-19T10:19:01.790Z,102368.53
2023-04-19T10:21:29.262Z,102369.59
2023-04-19T10:23:59.844Z,102381.53
2023-04-19T10:27:07.369Z,102363.28
2023-04-19T10:29:56.220Z,102369.56
2023-04-19T10:32:45.630Z,102361.28
2023-04-19T10:35:29.505Z,102356.53
2023-04-19T10:38:16.601Z,102355.94
2023-04-19T10:40:56.542Z,102352.09
2023-04-19T10:43:26.878Z,102351.84
2023-04-19T10:46:00.358Z,102357.97
2023-04-19T10:48:33.550Z,102341.84
2023-04-19T10:51:16.949Z,102341.88
2023-04-19T10:53:43.804Z,102340.69
2023-04-19T10:56:10.745Z,102338.09
2023-04-19T10:59:02.812Z,102330.72
2023-04-19T11:01:45.478Z,102332.41
2023-04-19T11:04:19.682Z,102331.19
2023-04-19T11:06:52.690Z,102317.13
2023-04-19T11:09:30.921Z,102321.75
2023-04-19T11:12:01.453Z,102333.59
2023-04-19T11:14:35.146Z,102320.09
2023-04-19T11:17:16.182Z,102323.09
2023-04-19T11:19:53.946Z,102311.59
2023-04-19T11:22:31.111Z,102299.97
2023-04-19T11:25:05.415Z,102304.44
2023-04-19T11:27:34.048Z,102285.63
2023-04-19T11:30:08.013Z,102298.84
2023-04-19T11:32:38.829Z,102309.34
2023-04-19T11:35:10.100Z,102296.91
2023-04-19T11:37:39.181Z,102292.94
2023-04-19T11:40:14.361Z,102293.66
2023-04-19T11:42:44.113Z,102275.59
2023-04-19T11:47:54.258Z,102274.34
2023-04-19T11:50:38.423Z,102278.34
2023-04-19T11:53:24.394Z,102275.09
2023-04-19T11:55:52.988Z,102279.81
2023-04-19T11:58:44.712Z,102280.22
2023-04-19T12:01:16.520Z,102281.56
2023-04-19T12:03:51.453Z,102270.03
2023-04-19T12:06:33.330Z,102268.94
2023-04-19T12:09:00.914Z,102280.03
2023-04-19T12:11:50.380Z,102270.66
2023-04-19T12:14:23.181Z,102266.56
2023-04-19T12:17:16.194Z,102269.28
2023-04-19T12:19:52.181Z,102269.41
2023-04-19T12:22:24.285Z,102262.44
2023-04-19T12:24:56.161Z,102247.25
2023-04-19T12:27:25.788Z,102261.91
2023-04-19T12:29:53.473Z,102244.19
2023-04-19T12:32:21.062Z,102250.44
2023-04-19T12:34:48.364Z,102254.84
2023-04-19T12:37:15.522Z,102249.94
2023-04-19T12:39:44.782Z,102252.06
2023-04-19T12:42:12.130Z,102233.38
2023-04-19T12:44:39.437Z,102249.94
2023-04-19T12:47:08.849Z,102239.88
2023-04-19T12:49:38.989Z,102242.16
2023-04-19T12:52:07.298Z,102237.16
2023-04-19T12:54:41.610Z,102232.91
2023-04-19T12:57:09.004Z,102231.47
2023-04-19T12:59:37.937Z,102239.84
2023-04-19T13:02:08.034Z,102225.63
2023-04-19T13:04:42.564Z,102213.00
2023-04-19T13:07:12.294Z,102214.72
2023-04-19T13:09:43.876Z,102211.88
2023-04-19T13:12:11.070Z,102211.88
2023-04-19T13:14:38.332Z,102220.38
2023-04-19T13:17:05.625Z,102218.34
2023-04-19T13:19:34.968Z,102202.22
2023-04-19T13:22:01.985Z,102207.25
2023-04-19T13:24:29.063Z,102200.22
2023-04-19T13:27:00.809Z,102196.63
2023-04-19T13:29:30.422Z,102189.44
2023-04-19T13:31:59.950Z,102191.06
2023-04-19T13:34:27.059Z,102188.41
2023-04-19T13:36:54.238Z,102197.22
2023-04-19T13:39:21.730Z,102183.63
2023-04-19T13:41:51.310Z,102180.06
2023-04-19T13:44:18.525Z,102183.53
2023-04-19T13:46:45.843Z,102182.97
2023-04-19T13:49:15.246Z,102185.25
2023-04-19T13:51:50.049Z,102185.41
2023-04-19T13:54:18.965Z,102176.88
2023-04-19T13:56:46.398Z,102178.59
2023-04-19T14:00:09.400Z,102167.59
2023-04-19T14:02:42.665Z,102167.72
2023-04-19T14:05:15.536Z,102165.25
2023-04-19T14:07:46.336Z,102149.53
2023-04-19T14:10:16.034Z,102161.97
2023-04-19T14:12:43.064Z,102169.38
2023-04-19T14:15:16.989Z,102165.53
2023-04-19T14:17:44.445Z,102153.34
2023-04-19T14:20:12.699Z,102165.28
2023-04-19T14:22:40.321Z,102159.16
2023-04-19T14:25:07.934Z,102160.44
2023-04-19T14:27:38.546Z,102153.63
2023-04-19T14:30:07.727Z,102153.72
2023-04-19T14:32:35.145Z,102139.31
2023-04-19T14:35:04.932Z,102146.16
2023-04-19T14:37:34.618Z,102159.97
2023-04-19T14:40:01.762Z,102148.59
2023-04-19T14:42:33.885Z,102147.06
2023-04-19T14:45:03.885Z,102148.78
2023-04-19T14:47:31.282Z,102141.25
2023-04-19T14:50:00.991Z,102136.13
2023-04-19T14:52:30.285Z,102140.09
2023-04-19T14:54:58.065Z,102130.69
2023-04-19T14:57:25.902Z,102132.75
2023-04-19T14:59:59.274Z,102142.88
2023-04-19T15:02:26.953Z,102138.28
2023-04-19T15:04:57.359Z,102130.44
2023-04-19T15:07:24.828Z,102123.41
2023-04-19T15:09:52.249Z,102133.34
2023-04-19T15:12:19.416Z,102125.66
2023-04-19T15:14:49.110Z,102130.31
2023-04-19T15:17:18.671Z,102119.53
2023-04-19T15:19:47.816Z,102120.88
2023-04-19T15:22:17.452Z,102113.88
2023-04-19T15:24:44.928Z,102106.50
2023-04-19T15:27:14.672Z,102110.78
2023-04-19T15:29:42.147Z,102109.44
2023-04-19T15:32:12.524Z,102104.13
2023-04-19T15:34:39.733Z,102106.19
2023-04-19T15:37:08.236Z,102094.56
2023-04-19T15:39:37.809Z,102107.56
2023-04-19T15:42:06.141Z,102107.38
2023-04-19T15:44:35.951Z,102107.22
2023-04-19T15:47:06.065Z,102104.81
2023-04-19T15:49:33.289Z,102095.22
2023-04-19T15:52:00.725Z,102101.06
2023-04-19T15:54:29.082Z,102114.19
2023-04-19T15:56:57.635Z,102104.03
2023-04-19T15:59:29.871Z,102109.28
2023-04-19T16:01:59.729Z,102109.56
2023-04-19T16:04:27.241Z,102099.69
2023-04-19T16:06:55.644Z,102104.03
2023-04-19T16:09:23.115Z,102115.41
2023-04-19T16:11:51.914Z,102110.41
2023-04-19T16:14:19.222Z,102118.75
2023-04-19T16:16:46.836Z,102119.88
2023-04-19T16:19:16.708Z,102111.06
2023-04-19T16:21:43.788Z,102102.91
2023-04-19T16:25:40.331Z,102125.13
2023-04-19T16:28:10.272Z,102126.47
2023-04-19T16:30:40.182Z,102111.22
2023-04-19T16:33:07.661Z,102120.38
2023-04-19T16:35:37.531Z,102129.22
2023-04-19T16:38:05.145Z,102111.97
2023-04-19T16:40:37.212Z,102111.91
2023-04-19T16:43:06.419Z,102110.00
2023-04-19T16:45:33.949Z,102106.16
2023-04-19T16:48:03.725Z,102118.78
2023-04-19T16:50:33.340Z,102106.03
2023-04-19T16:53:07.742Z,102119.28
2023-04-19T16:55:44.589Z,102118.97
2023-04-19T16:58:15.875Z,102102.16
2023-04-19T17:00:46.757Z,102110.78
2023-04-19T17:03:15.254Z,102114.44
2023-04-19T17:05:45.103Z,102108.81
2023-04-19T17:08:14.321Z,102106.22
2023-04-19T17:10:43.117Z,102108.66
2023-04-19T17:13:10.605Z,102110.91
2023-04-19T17:15:40.800Z,102127.41
2023-04-19T17:18:12.018Z,102115.97
2023-04-19T17:20:43.689Z,102108.19
2023-04-19T17:23:25.819Z,102117.72
2023-04-19T17:26:06.380Z,102118.44
2023-04-19T17:28:35.990Z,102130.00
2023-04-19T17:31:04.332Z,102121.19
2023-04-19T17:33:33.052Z,102118.97
2023-04-19T17:36:04.065Z,102120.72
2023-04-19T17:38:32.143Z,102118.81
2023-04-19T17:41:03.633Z,102128.25
2023-04-19T17:43:30.541Z,102129.13
2023-04-19T17:45:59.763Z,102140.00
2023-04-19T17:48:29.579Z,102118.66
2023-04-19T17:50:56.492Z,102129.41
2023-04-19T17:53:23.369Z,102125.81
2023-04-19T17:55:51.708Z,102120.53
2023-04-19T17:58:18.575Z,102127.69
2023-04-19T18:00:48.022Z,102135.13
2023-04-19T18:03:18.936Z,102124.09
2023-04-19T18:05:46.077Z,102130.84
2023-04-19T18:08:13.494Z,102136.69
2023-04-19T18:10:40.409Z,102131.13
2023-04-19T18:13:10.284Z,102123.66
2023-04-19T18:15:39.609Z,102124.25
2023-04-19T18:18:08.623Z,102128.53
2023-04-19T18:20:37.934Z,102115.38
2023-04-19T18:23:04.972Z,102128.41
2023-04-19T18:25:35.100Z,102126.81
2023-04-19T18:28:02.238Z,102113.41
2023-04-19T18:30:29.140Z,102114.53
2023-04-19T18:32:55.981Z,102101.94
2023-04-19T18:35:25.972Z,102101.34
2023-04-19T18:37:52.832Z,102110.81
2023-04-19T18:40:19.942Z,102107.66
2023-04-19T18:42:49.181Z,102090.75
2023-04-19T18:45:16.322Z,102093.06
2023-04-19T18:47:43.291Z,102092.78
2023-04-19T18:50:13.347Z,102077.63
2023-04-19T18:52:45.966Z,102076.03
2023-04-19T18:55:16.004Z,102073.06
2023-04-19T18:57:42.936Z,102074.75
2023-04-19T19:00:11.330Z,102075.34
2023-04-19T19:02:41.524Z,102070.16
2023-04-19T19:05:13.762Z,102058.84
2023-04-19T19:07:41.642Z,102050.16
2023-04-19T19:10:19.241Z,102044.00
2023-04-19T19:12:53.889Z,102048.56
2023-04-19T19:15:20.775Z,102042.97
2023-04-19T19:17:50.337Z,102039.84
2023-04-19T19:20:19.518Z,102027.84
2023-04-19T19:22:46.457Z,102016.09
2023-04-19T19:25:13.607Z,102018.63
2023-04-19T19:27:58.389Z,102026.94
2023-04-19T19:30:33.531Z,102035.38
2023-04-19T19:33:02.360Z,102026.69
2023-04-19T19:35:31.429Z,102036.94
2023-04-19T19:37:58.415Z,102030.09
2023-04-19T19:40:25.275Z,102028.25
2023-04-19T19:42:52.116Z,102022.13
2023-04-19T19:45:22.090Z,102024.56
2023-04-19T19:47:51.656Z,102035.84
2023-04-19T19:52:51.272Z,102021.56
2023-04-19T19:55:18.397Z,102015.25
2023-04-19T20:00:42.025Z,102017.00
2023-04-19T20:03:06.250Z,102021.16
2023-04-19T20:05:34.099Z,102034.31
2023-04-19T20:08:15.604Z,102033.00
2023-04-19T20:10:45.137Z,102020.72
2023-04-19T20:13:13.234Z,102023.00
2023-04-19T20:15:45.320Z,102035.84
2023-04-19T20:18:12.325Z,102024.69
2023-04-19T20:20:41.533Z,102026.97
2023-04-19T20:23:08.863Z,102006.41
2023-04-19T20:25:35.948Z,102022.59
2023-04-19T20:28:03.441Z,102015.94
2023-04-19T20:30:31.119Z,102010.50
2023-04-19T20:33:01.178Z,102012.91
2023-04-19T20:35:28.461Z,102025.88
2023-04-19T20:38:02.124Z,102018.91
2023-04-19T20:40:31.639Z,102031.56
2023-04-19T20:42:58.717Z,102020.84
2023-04-19T20:45:25.839Z,102027.19
2023-04-19T20:47:54.197Z,102024.88
2023-04-19T20:50:24.364Z,102011.13
2023-04-19T20:52:53.458Z,102020.09
2023-04-19T20:55:22.951Z,102028.56
2023-04-19T20:57:49.834Z,102015.31
2023-04-19T21:00:17.144Z,102004.13
2023-04-19T21:02:47.157Z,102010.09
2023-04-19T21:05:14.192Z,102004.13
2023-04-19T21:07:41.010Z,102001.50
2023-04-19T21:10:08.491Z,101995.81
2023-04-19T21:12:38.352Z,102000.16
2023-04-19T21:15:06.347Z,101996.28
2023-04-19T21:17:35.475Z,101995.28
2023-04-19T21:20:02.641Z,101988.47
2023-04-19T21:22:31.908Z,101983.41
2023-04-19T21:25:01.260Z,101983.78
2023-04-19T21:27:30.108Z,101982.28
2023-04-19T21:29:56.930Z,101982.88
2023-04-19T21:32:23.882Z,101976.19
2023-04-19T21:34:50.814Z,101968.53
2023-04-19T21:37:20.827Z,101957.22
2023-04-19T21:39:49.181Z,101948.91
2023-04-19T21:42:16.055Z,101946.16
2023-04-19T21:44:42.890Z,101950.66
2023-04-19T21:47:10.956Z,101937.00
2023-04-19T21:49:44.762Z,101946.41
2023-04-19T21:52:11.699Z,101938.44
2023-04-19T21:54:38.565Z,101931.75
2023-04-19T21:57:05.586Z,101932.91
2023-04-19T21:59:38.590Z,101911.81
2023-04-19T22:02:05.651Z,101926.31
2023-04-19T22:04:32.693Z,101917.44
2023-04-19T22:07:02.728Z,101918.81
2023-04-19T22:09:30.551Z,101914.75
2023-04-19T22:12:00.895Z,101918.25
2023-04-19T22:14:28.562Z,101912.72
2023-04-19T22:16:56.658Z,101900.25
2023-04-19T22:19:26.242Z,101913.13
2023-04-19T22:21:53.601Z,101913.28
2023-04-19T22:24:22.128Z,101916.81
2023-04-19T22:26:50.150Z,101924.78
2023-04-19T22:29:18.133Z,101913.63
2023-04-19T22:31:45.468Z,101927.34
2023-04-19T22:34:14.678Z,101921.53
2023-04-19T22:36:41.645Z,101927.63
2023-04-19T22:39:09.072Z,101914.53
2023-04-19T22:41:36.238Z,101924.94
2023-04-19T22:44:06.141Z,101913.28
2023-04-19T22:46:36.639Z,101916.44
2023-04-19T22:49:06.326Z,101934.19
2023-04-19T22:51:36.753Z,101906.41
2023-04-19T22:54:04.460Z,101912.69
2023-04-19T22:56:31.327Z,101917.78
2023-04-19T22:58:58.326Z,101902.66
2023-04-19T23:01:27.426Z,101903.97
2023-04-19T23:03:55.035Z,101907.47
2023-04-19T23:06:22.765Z,101897.72
2023-04-19T23:08:50.540Z,101896.91
2023-04-19T23:11:17.690Z,101898.56
2023-04-19T23:13:47.454Z,101899.75
2023-04-19T23:16:17.030Z,101897.03
2023-04-19T23:18:47.063Z,101892.28
2023-04-19T23:21:14.490Z,101896.31
2023-04-19T23:23:41.398Z,101902.97
2023-04-19T23:26:10.514Z,101893.00
2023-04-19T23:28:37.685Z,101898.53
2023-04-19T23:31:05.314Z,101907.75
2023-04-19T23:33:32.277Z,101897.31
2023-04-19T23:36:01.346Z,101913.13
2023-04-19T23:38:30.668Z,101903.69
2023-04-19T23:41:00.450Z,101898.72
2023-04-19T23:43:31.869Z,101892.97
2023-04-19T23:45:58.754Z,101901.63
2023-04-19T23:48:25.957Z,101890.38
2023-04-19T23:50:55.414Z,101889.00
2023-04-19T23:53:22.519Z,101889.59
2023-04-19T23:55:51.792Z,101887.47
2023-04-19T23:58:20.152Z,101888.97
